createdAt,value
2016-03-29T00:00:14.911Z,941.82
2016-03-29T00:01:15.930Z,941.78
2016-03-29T00:02:15.198Z,941.81
2016-03-29T00:03:15.404Z,941.88
2016-03-29T00:04:15.704Z,941.81
2016-03-29T00:05:15.332Z,941.8
2016-03-29T00:06:15.131Z,941.79
2016-03-29T00:07:15.634Z,941.8
2016-03-29T00:08:15.417Z,941.76
2016-03-29T00:09:14.952Z,941.57
2016-03-29T00:10:15.032Z,941.59
2016-03-29T00:11:14.817Z,941.58
2016-03-29T00:12:15.038Z,941.62
2016-03-29T00:13:14.760Z,941.66
2016-03-29T00:14:15.013Z,941.7
2016-03-29T00:15:15.233Z,941.75
2016-03-29T00:16:15.470Z,941.77
2016-03-29T00:17:14.988Z,941.7
2016-03-29T00:18:14.835Z,941.66
2016-03-29T00:19:14.963Z,941.72
2016-03-29T00:20:15.246Z,941.67
2016-03-29T00:21:15.187Z,941.66
2016-03-29T00:22:15.455Z,941.68
2016-03-29T00:23:15.567Z,941.63
2016-03-29T00:24:15.165Z,941.66
2016-03-29T00:25:15.370Z,941.67
2016-03-29T00:26:15.154Z,941.62
2016-03-29T00:27:15.437Z,941.7
2016-03-29T00:28:15.112Z,941.7
2016-03-29T00:29:14.474Z,941.67
2016-03-29T00:30:12.242Z,941.67
2016-03-29T00:31:15.433Z,941.69
2016-03-29T00:32:14.810Z,941.7
2016-03-29T00:33:15.126Z,941.76
2016-03-29T00:34:15.144Z,941.81
2016-03-29T00:35:15.022Z,941.83
2016-03-29T00:36:15.025Z,941.85
2016-03-29T00:37:15.027Z,941.8
2016-03-29T00:38:12.670Z,941.76
2016-03-29T00:39:14.969Z,941.81
2016-03-29T00:40:14.661Z,941.91
2016-03-29T00:41:15.272Z,941.84
2016-03-29T00:42:15.275Z,941.84
2016-03-29T00:43:15.261Z,941.82
2016-03-29T00:44:16.077Z,941.79
2016-03-29T00:45:15.064Z,941.75
2016-03-29T00:46:14.926Z,941.72
2016-03-29T00:47:14.445Z,941.75
2016-03-29T00:48:15.291Z,941.74
2016-03-29T00:49:15.138Z,941.65
2016-03-29T00:50:15.202Z,941.66
2016-03-29T00:51:14.815Z,941.59
2016-03-29T00:52:14.818Z,941.7
2016-03-29T00:53:14.804Z,941.63
2016-03-29T00:54:12.229Z,941.57
2016-03-29T00:55:14.935Z,941.63
2016-03-29T00:56:11.954Z,941.58
2016-03-29T00:57:14.518Z,941.57
2016-03-29T00:58:14.474Z,941.61
2016-03-29T00:59:14.602Z,941.6
2016-03-29T01:00:11.917Z,941.59
2016-03-29T01:01:14.731Z,941.55
2016-03-29T01:02:12.298Z,941.59
2016-03-29T01:03:11.862Z,941.59
2016-03-29T01:04:12.053Z,941.55
2016-03-29T01:05:14.977Z,941.48
2016-03-29T01:06:14.948Z,941.44
2016-03-29T01:07:14.623Z,941.4
2016-03-29T01:09:14.852Z,941.38
2016-03-29T01:10:14.527Z,941.41
2016-03-29T01:11:14.764Z,941.43
2016-03-29T01:12:14.516Z,941.42
2016-03-29T01:13:11.988Z,941.37
2016-03-29T01:14:11.725Z,941.29
2016-03-29T01:15:14.260Z,941.3
2016-03-29T01:16:14.340Z,941.33
2016-03-29T01:17:14.077Z,941.31
2016-03-29T01:18:14.064Z,941.28
2016-03-29T01:19:14.270Z,941.34
2016-03-29T01:20:11.866Z,941.31
2016-03-29T01:21:14.509Z,941.22
2016-03-29T01:22:11.841Z,941.24
2016-03-29T01:23:11.843Z,941.33
2016-03-29T01:24:11.830Z,941.25
2016-03-29T01:25:11.629Z,941.24
2016-03-29T01:26:11.804Z,941.19
2016-03-29T01:27:12.042Z,941.3
2016-03-29T01:29:14.531Z,941.31
2016-03-29T01:30:11.550Z,941.25
2016-03-29T01:31:14.942Z,941.25
2016-03-29T01:32:11.539Z,941.27
2016-03-29T01:33:11.729Z,941.29
2016-03-29T01:34:11.748Z,941.29
2016-03-29T01:35:14.219Z,941.3
2016-03-29T01:36:11.502Z,941.29
2016-03-29T01:37:11.489Z,941.2
2016-03-29T01:38:11.914Z,941.25
2016-03-29T01:39:14.027Z,941.25
2016-03-29T01:40:11.669Z,941.28
2016-03-29T01:41:14.250Z,941.09
2016-03-29T01:42:11.660Z,941.11
2016-03-29T01:43:11.663Z,941.1
2016-03-29T01:44:11.649Z,941.04
2016-03-29T01:45:14.340Z,941.07
2016-03-29T01:46:12.733Z,941.07
2016-03-29T01:47:11.626Z,941
2016-03-29T01:48:12.660Z,940.99
2016-03-29T01:49:13.631Z,940.96
2016-03-29T01:50:13.916Z,940.95
2016-03-29T01:51:13.887Z,941.07
2016-03-29T01:52:14.030Z,941.03
2016-03-29T01:53:14.283Z,941.03
2016-03-29T01:54:14.160Z,940.94
2016-03-29T01:55:14.163Z,940.88
2016-03-29T01:56:13.853Z,940.93
2016-03-29T01:57:14.216Z,940.99
2016-03-29T01:58:14.171Z,940.92
2016-03-29T01:59:11.424Z,941.04
2016-03-29T02:00:14.192Z,940.97
2016-03-29T02:01:14.023Z,941.02
2016-03-29T02:02:13.776Z,941.07
2016-03-29T02:03:13.903Z,941.08
2016-03-29T02:04:11.406Z,941.07
2016-03-29T02:05:13.972Z,941.02
2016-03-29T02:06:13.803Z,941.01
2016-03-29T02:07:11.570Z,941.03
2016-03-29T02:08:14.042Z,941.06
2016-03-29T02:09:14.076Z,941.03
2016-03-29T02:10:13.673Z,941.02
2016-03-29T02:11:14.003Z,941.07
2016-03-29T02:12:14.224Z,941.06
2016-03-29T02:13:13.399Z,941.06
2016-03-29T02:14:14.214Z,941.12
2016-03-29T02:16:13.939Z,941.23
2016-03-29T02:17:13.708Z,941.24
2016-03-29T02:18:13.991Z,941.22
2016-03-29T02:19:13.837Z,941.32
2016-03-29T02:20:13.918Z,941.46
2016-03-29T02:21:13.718Z,941.49
2016-03-29T02:22:13.798Z,941.63
2016-03-29T02:23:13.738Z,941.62
2016-03-29T02:24:13.709Z,941.78
2016-03-29T02:25:13.901Z,941.98
2016-03-29T02:26:13.731Z,941.86
2016-03-29T02:27:13.828Z,942.09
2016-03-29T02:28:13.768Z,942.14
2016-03-29T02:29:13.801Z,942.27
2016-03-29T02:31:13.697Z,942.55
2016-03-29T02:32:13.997Z,942.43
2016-03-29T02:33:13.703Z,942.51
2016-03-29T02:34:13.518Z,942.42
2016-03-29T02:35:13.552Z,942.45
2016-03-29T02:36:13.617Z,942.39
2016-03-29T02:37:13.761Z,942.15
2016-03-29T02:38:13.700Z,941.98
2016-03-29T02:39:13.594Z,942.01
2016-03-29T02:40:13.878Z,942.21
2016-03-29T02:41:13.866Z,942.27
2016-03-29T02:42:13.633Z,942.36
2016-03-29T02:43:13.699Z,942.4
2016-03-29T02:44:13.780Z,942.33
2016-03-29T02:45:13.689Z,942.38
2016-03-29T02:46:13.191Z,942.37
2016-03-29T02:47:13.224Z,942.36
2016-03-29T02:48:14.806Z,942.33
2016-03-29T02:49:13.933Z,942.38
2016-03-29T02:50:12.999Z,942.39
2016-03-29T02:51:14.002Z,942.37
2016-03-29T02:52:13.724Z,942.38
2016-03-29T02:53:13.679Z,942.33
2016-03-29T02:54:13.196Z,942.28
2016-03-29T02:55:13.403Z,942.39
2016-03-29T02:56:13.343Z,942.38
2016-03-29T02:57:13.409Z,942.44
2016-03-29T02:58:13.223Z,942.46
2016-03-29T02:59:13.257Z,942.41
2016-03-29T03:00:13.213Z,942.38
2016-03-29T03:01:13.076Z,942.39
2016-03-29T03:02:13.656Z,942.46
2016-03-29T03:03:12.909Z,942.42
2016-03-29T03:04:13.349Z,942.44
2016-03-29T03:05:12.851Z,942.4
2016-03-29T03:06:12.979Z,942.49
2016-03-29T03:07:41.467Z,942.54
2016-03-29T03:09:16.784Z,942.59
2016-03-29T03:10:47.943Z,942.65
2016-03-29T03:13:37.122Z,942.62
2016-03-29T03:15:09.769Z,942.78
2016-03-29T03:16:36.569Z,942.77
2016-03-29T03:18:02.196Z,942.77
2016-03-29T03:19:44.702Z,942.92
2016-03-29T03:20:44.657Z,942.93
2016-03-29T03:21:44.957Z,942.96
2016-03-29T03:22:44.928Z,942.94
2016-03-29T03:23:44.822Z,943.03
2016-03-29T03:24:44.934Z,942.98
2016-03-29T03:25:44.546Z,943.01
2016-03-29T03:26:45.127Z,943.02
2016-03-29T03:27:44.879Z,943.08
2016-03-29T03:28:44.913Z,943.02
2016-03-29T03:29:44.790Z,943.07
2016-03-29T03:30:44.793Z,943.06
2016-03-29T03:31:44.468Z,943.09
2016-03-29T03:32:44.268Z,943.07
2016-03-29T03:33:44.598Z,943.14
2016-03-29T03:34:44.414Z,943.14
2016-03-29T03:35:44.823Z,943.16
2016-03-29T03:36:44.653Z,943.17
2016-03-29T03:37:42.063Z,943.1
2016-03-29T03:38:44.565Z,943.26
2016-03-29T03:39:45.006Z,943.11
2016-03-29T03:40:44.352Z,943.12
2016-03-29T03:41:44.511Z,943.11
2016-03-29T03:42:44.451Z,943.24
2016-03-29T03:43:45.000Z,943.06
2016-03-29T03:44:44.441Z,943.07
2016-03-29T03:45:44.396Z,943.11
2016-03-29T03:46:44.306Z,943.18
2016-03-29T03:47:44.933Z,943.26
2016-03-29T03:48:44.639Z,943.23
2016-03-29T03:49:41.939Z,943.24
2016-03-29T03:50:41.816Z,943.26
2016-03-29T03:51:44.194Z,943.29
2016-03-29T03:52:44.649Z,943.26
2016-03-29T03:53:43.981Z,943.24
2016-03-29T03:54:44.233Z,943.27
2016-03-29T03:55:44.267Z,943.27
2016-03-29T03:56:44.504Z,943.15
2016-03-29T03:57:44.304Z,943.24
2016-03-29T03:58:44.306Z,943.25
2016-03-29T03:59:44.591Z,943.22
2016-03-29T04:00:44.468Z,943.18
2016-03-29T04:01:44.268Z,943.12
2016-03-29T04:02:44.364Z,943.14
2016-03-29T04:03:44.023Z,943.21
2016-03-29T04:04:44.370Z,943.23
2016-03-29T04:05:44.247Z,943.24
2016-03-29T04:06:43.953Z,943.13
2016-03-29T04:07:44.158Z,943.17
2016-03-29T04:08:41.662Z,943.23
2016-03-29T04:09:41.477Z,943.19
2016-03-29T04:10:44.183Z,943.28
2016-03-29T04:11:44.233Z,943.27
2016-03-29T04:12:44.172Z,943.23
2016-03-29T04:13:44.003Z,943.32
2016-03-29T04:14:44.178Z,943.31
2016-03-29T04:15:44.102Z,943.29
2016-03-29T04:16:44.089Z,943.36
2016-03-29T04:17:44.013Z,943.29
2016-03-29T04:18:44.267Z,943.3
2016-03-29T04:19:44.004Z,943.31
2016-03-29T04:20:43.882Z,943.28
2016-03-29T04:21:44.322Z,943.26
2016-03-29T04:22:43.777Z,943.28
2016-03-29T04:23:43.936Z,943.31
2016-03-29T04:24:44.204Z,943.28
2016-03-29T04:25:44.035Z,943.26
2016-03-29T04:26:41.257Z,943.33
2016-03-29T04:27:41.244Z,943.33
2016-03-29T04:28:41.466Z,943.33
2016-03-29T04:29:41.452Z,943.34
2016-03-29T04:30:43.815Z,943.37
2016-03-29T04:31:41.208Z,943.37
2016-03-29T04:32:41.429Z,943.37
2016-03-29T04:33:41.167Z,943.4
2016-03-29T04:34:43.685Z,943.44
2016-03-29T04:35:41.156Z,943.53
2016-03-29T04:36:43.378Z,943.5
2016-03-29T04:38:03.568Z,943.54
2016-03-29T04:39:38.323Z,943.51
2016-03-29T04:41:16.173Z,943.62
2016-03-29T04:43:00.206Z,943.63
2016-03-29T04:44:43.852Z,943.67
2016-03-29T04:46:22.061Z,943.71
2016-03-29T04:49:24.850Z,943.77
2016-03-29T04:50:56.072Z,943.82
2016-03-29T04:52:26.030Z,943.78
2016-03-29T04:53:52.877Z,943.76
2016-03-29T04:55:13.288Z,943.76
2016-03-29T04:56:32.900Z,943.82
2016-03-29T04:57:56.216Z,943.84
2016-03-29T04:59:19.674Z,943.88
2016-03-29T05:00:40.708Z,943.88
2016-03-29T05:02:05.179Z,943.95
2016-03-29T05:03:28.029Z,943.98
2016-03-29T05:04:59.296Z,943.95
2016-03-29T05:05:58.955Z,944.04
2016-03-29T05:06:58.896Z,943.99
2016-03-29T05:07:58.664Z,943.99
2016-03-29T05:08:58.854Z,944.04
2016-03-29T05:09:59.092Z,943.96
2016-03-29T05:10:58.829Z,943.98
2016-03-29T05:11:59.019Z,943.99
2016-03-29T05:12:58.911Z,944.04
2016-03-29T05:14:00.290Z,944.05
2016-03-29T05:14:58.573Z,944.01
2016-03-29T05:15:58.560Z,943.99
2016-03-29T05:16:58.766Z,943.97
2016-03-29T05:17:58.753Z,943.94
2016-03-29T05:18:59.741Z,943.98
2016-03-29T05:19:58.993Z,944.01
2016-03-29T05:20:58.981Z,943.92
2016-03-29T05:21:59.671Z,944
2016-03-29T05:22:58.470Z,943.98
2016-03-29T05:23:58.926Z,943.95
2016-03-29T05:24:58.663Z,944
2016-03-29T05:25:58.447Z,943.94
2016-03-29T05:26:58.434Z,943.95
2016-03-29T05:27:58.827Z,943.93
2016-03-29T05:28:59.721Z,944
2016-03-29T05:29:58.849Z,943.9
2016-03-29T05:30:58.586Z,944.01
2016-03-29T05:31:58.385Z,943.99
2016-03-29T05:32:58.591Z,943.97
2016-03-29T05:33:58.343Z,944.09
2016-03-29T05:34:58.596Z,944.15
2016-03-29T05:35:58.317Z,944.03
2016-03-29T05:36:59.165Z,944.04
2016-03-29T05:37:58.573Z,944.22
2016-03-29T05:38:58.356Z,944.28
2016-03-29T05:39:58.500Z,944.12
2016-03-29T05:40:59.456Z,944.15
2016-03-29T05:41:58.270Z,944.21
2016-03-29T05:42:59.586Z,944.06
2016-03-29T05:43:58.433Z,944.14
2016-03-29T05:44:58.216Z,944.27
2016-03-29T05:45:58.203Z,944.21
2016-03-29T05:46:59.300Z,944.16
2016-03-29T05:47:58.381Z,944.27
2016-03-29T05:48:58.336Z,944.24
2016-03-29T05:49:59.417Z,944.28
2016-03-29T05:50:58.154Z,944.15
2016-03-29T05:51:59.377Z,944.18
2016-03-29T05:52:58.129Z,944.29
2016-03-29T05:53:58.100Z,944.21
2016-03-29T05:54:58.416Z,944.22
2016-03-29T05:55:58.059Z,944.32
2016-03-29T05:56:58.311Z,944.29
2016-03-29T05:57:58.079Z,944.33
2016-03-29T05:58:58.754Z,944.34
2016-03-29T05:59:58.882Z,944.35
2016-03-29T06:00:59.134Z,944.37
2016-03-29T06:01:58.231Z,944.42
2016-03-29T06:02:58.265Z,944.45
2016-03-29T06:03:59.580Z,944.46
2016-03-29T06:04:57.958Z,944.53
2016-03-29T06:05:59.210Z,944.54
2016-03-29T06:06:58.167Z,944.48
2016-03-29T06:07:58.201Z,944.49
2016-03-29T06:08:57.953Z,944.42
2016-03-29T06:09:57.897Z,944.49
2016-03-29T06:10:57.899Z,944.45
2016-03-29T06:11:57.888Z,944.53
2016-03-29T06:12:58.405Z,944.53
2016-03-29T06:13:57.846Z,944.6
2016-03-29T06:14:58.849Z,944.58
2016-03-29T06:15:59.054Z,944.59
2016-03-29T06:16:59.010Z,944.52
2016-03-29T06:17:58.309Z,944.64
2016-03-29T06:18:58.032Z,944.55
2016-03-29T06:19:57.799Z,944.58
2016-03-29T06:20:58.021Z,944.69
2016-03-29T06:21:59.007Z,944.67
2016-03-29T06:22:57.745Z,944.66
2016-03-29T06:23:58.497Z,944.65
2016-03-29T06:24:57.750Z,944.71
2016-03-29T06:25:57.721Z,944.65
2016-03-29T06:26:57.693Z,944.68
2016-03-29T06:27:58.726Z,944.65
2016-03-29T06:28:58.589Z,944.84
2016-03-29T06:29:59.310Z,944.73
2016-03-29T06:30:57.689Z,944.75
2016-03-29T06:31:58.612Z,944.79
2016-03-29T06:32:58.631Z,944.82
2016-03-29T06:33:57.914Z,944.76
2016-03-29T06:34:57.824Z,944.77
2016-03-29T06:35:57.842Z,944.72
2016-03-29T06:36:57.594Z,944.79
2016-03-29T06:37:57.801Z,944.85
2016-03-29T06:38:58.741Z,944.85
2016-03-29T06:39:57.791Z,944.93
2016-03-29T06:40:58.761Z,944.85
2016-03-29T06:41:57.874Z,944.84
2016-03-29T06:42:57.533Z,944.92
2016-03-29T06:43:58.723Z,944.95
2016-03-29T06:44:58.444Z,944.88
2016-03-29T06:45:57.509Z,945.03
2016-03-29T06:46:57.482Z,944.99
2016-03-29T06:47:57.484Z,945.1
2016-03-29T06:48:58.377Z,945.04
2016-03-29T06:49:58.271Z,945
2016-03-29T06:50:58.351Z,945.05
2016-03-29T06:51:57.651Z,944.95
2016-03-29T06:52:57.638Z,945.11
2016-03-29T06:53:58.188Z,945.12
2016-03-29T06:54:57.634Z,945.09
2016-03-29T06:55:57.338Z,945.05
2016-03-29T06:56:57.434Z,944.97
2016-03-29T06:57:57.497Z,944.98
2016-03-29T06:59:00.249Z,945.2
2016-03-29T07:00:00.161Z,945.04
2016-03-29T07:01:00.110Z,945.05
2016-03-29T07:01:57.216Z,945.03
2016-03-29T07:02:59.931Z,944.96
2016-03-29T07:04:00.522Z,945.06
2016-03-29T07:04:59.754Z,945.25
2016-03-29T07:05:59.927Z,945.33
2016-03-29T07:06:59.599Z,945.39
2016-03-29T07:07:59.647Z,945.36
2016-03-29T07:08:59.992Z,945.18
2016-03-29T07:09:57.336Z,945.22
2016-03-29T07:10:57.354Z,945.18
2016-03-29T07:11:59.527Z,945.18
2016-03-29T07:12:59.560Z,945.69
2016-03-29T07:13:59.923Z,945.57
2016-03-29T07:14:57.252Z,945.61
2016-03-29T07:15:57.004Z,945.35
2016-03-29T07:17:00.038Z,945.26
2016-03-29T07:17:59.524Z,945.34
2016-03-29T07:18:59.465Z,945.35
2016-03-29T07:19:59.576Z,945.32
2016-03-29T07:20:56.985Z,945.3
2016-03-29T07:21:56.957Z,945.38
2016-03-29T07:22:57.209Z,945.42
2016-03-29T07:23:59.524Z,945.39
2016-03-29T07:24:57.356Z,945.42
2016-03-29T07:25:59.468Z,945.52
2016-03-29T07:26:57.330Z,945.43
2016-03-29T07:27:57.114Z,945.56
2016-03-29T07:28:56.881Z,945.53
2016-03-29T07:29:59.478Z,945.52
2016-03-29T07:30:56.872Z,945.52
2016-03-29T07:31:59.671Z,945.58
2016-03-29T07:32:56.861Z,945.6
2016-03-29T07:33:56.880Z,945.53
2016-03-29T07:34:57.038Z,945.58
2016-03-29T07:35:56.822Z,945.5
2016-03-29T07:36:56.810Z,945.54
2016-03-29T07:37:59.641Z,945.67
2016-03-29T07:38:56.784Z,945.73
2016-03-29T07:39:59.583Z,945.64
2016-03-29T07:40:57.008Z,945.68
2016-03-29T07:41:56.964Z,945.71
2016-03-29T07:42:56.982Z,945.72
2016-03-29T07:43:57.204Z,945.68
2016-03-29T07:44:56.987Z,945.74
2016-03-29T07:45:57.068Z,945.69
2016-03-29T07:46:57.852Z,945.78
2016-03-29T07:47:58.387Z,945.85
2016-03-29T07:48:59.357Z,945.73
2016-03-29T07:49:59.049Z,945.77
2016-03-29T07:50:56.910Z,945.75
2016-03-29T07:51:56.898Z,945.76
2016-03-29T07:52:57.712Z,945.86
2016-03-29T07:53:59.185Z,945.78
2016-03-29T07:54:57.749Z,945.83
2016-03-29T07:55:58.986Z,945.91
2016-03-29T07:56:59.146Z,945.9
2016-03-29T07:57:59.992Z,945.83
2016-03-29T07:58:59.401Z,945.92
2016-03-29T07:59:59.138Z,945.72
2016-03-29T08:00:59.156Z,945.95
2016-03-29T08:01:59.081Z,945.99
2016-03-29T08:02:59.115Z,945.85
2016-03-29T08:03:59.086Z,945.9
2016-03-29T08:04:59.354Z,945.91
2016-03-29T08:05:59.061Z,946.01
2016-03-29T08:06:59.048Z,945.92
2016-03-29T08:07:59.066Z,945.88
2016-03-29T08:08:59.084Z,945.93
2016-03-29T08:09:59.650Z,945.97
2016-03-29T08:10:59.042Z,945.94
2016-03-29T08:11:59.108Z,945.96
2016-03-29T08:12:59.032Z,946.08
2016-03-29T08:13:59.144Z,946.03
2016-03-29T08:14:59.006Z,946.03
2016-03-29T08:15:58.994Z,945.96
2016-03-29T08:16:58.903Z,946.08
2016-03-29T08:17:59.093Z,946.03
2016-03-29T08:18:59.221Z,946.08
2016-03-29T08:19:59.223Z,946.05
2016-03-29T08:20:59.757Z,946.04
2016-03-29T08:21:58.619Z,946.07
2016-03-29T08:22:58.982Z,946.09
2016-03-29T08:23:58.828Z,946.2
2016-03-29T08:24:58.846Z,946.11
2016-03-29T08:25:58.880Z,946.07
2016-03-29T08:26:59.257Z,946.12
2016-03-29T08:27:59.135Z,946.04
2016-03-29T08:28:58.873Z,946.1
2016-03-29T08:29:59.032Z,946.22
2016-03-29T08:30:58.862Z,946.12
2016-03-29T08:31:58.568Z,946.14
2016-03-29T08:32:59.133Z,946.19
2016-03-29T08:33:59.120Z,946.14
2016-03-29T08:34:59.357Z,946.18
2016-03-29T08:35:58.782Z,946.18
2016-03-29T08:36:58.754Z,946.22
2016-03-29T08:37:59.365Z,946.15
2016-03-29T08:38:59.134Z,946.19
2016-03-29T08:39:58.995Z,946.11
2016-03-29T08:40:58.780Z,946.22
2016-03-29T08:41:59.220Z,946.26
2016-03-29T08:42:58.972Z,946.16
2016-03-29T08:43:59.241Z,946.19
2016-03-29T08:44:58.961Z,946.29
2016-03-29T08:45:58.450Z,946.18
2016-03-29T08:46:58.624Z,946.19
2016-03-29T08:47:58.720Z,946.18
2016-03-29T08:48:58.802Z,946.25
2016-03-29T08:49:56.069Z,946.28
2016-03-29T08:50:58.963Z,946.24
2016-03-29T08:51:58.746Z,946.22
2016-03-29T08:52:58.922Z,946.35
2016-03-29T08:53:58.643Z,946.27
2016-03-29T08:54:58.880Z,946.25
2016-03-29T08:55:59.196Z,946.28
2016-03-29T08:56:58.666Z,946.35
2016-03-29T08:57:58.810Z,946.37
2016-03-29T08:58:58.563Z,946.33
2016-03-29T08:59:58.612Z,946.24
2016-03-29T09:00:56.068Z,946.34
2016-03-29T09:01:58.804Z,946.35
2016-03-29T09:02:58.870Z,946.28
2016-03-29T09:03:58.529Z,946.36
2016-03-29T09:04:58.532Z,946.46
2016-03-29T09:06:00.552Z,946.41
2016-03-29T09:06:56.522Z,946.41
2016-03-29T09:07:56.135Z,946.32
2016-03-29T09:08:55.887Z,946.39
2016-03-29T09:09:56.093Z,946.38
2016-03-29T09:10:56.080Z,946.34
2016-03-29T09:11:58.067Z,946.5
2016-03-29T09:12:55.851Z,946.4
2016-03-29T09:13:57.072Z,946.36
2016-03-29T09:14:55.840Z,946.37
2016-03-29T09:15:58.140Z,946.38
2016-03-29T09:16:56.909Z,946.35
2016-03-29T09:17:56.615Z,946.41
2016-03-29T09:18:56.023Z,946.38
2016-03-29T09:19:56.011Z,946.32
2016-03-29T09:20:57.263Z,946.52
2016-03-29T09:21:56.063Z,946.61
2016-03-29T09:22:56.878Z,946.38
2016-03-29T09:23:57.256Z,946.47
2016-03-29T09:24:56.040Z,946.4
2016-03-29T09:25:55.761Z,946.49
2016-03-29T09:26:55.998Z,946.46
2016-03-29T09:27:55.735Z,946.52
2016-03-29T09:28:57.503Z,946.55
2016-03-29T09:29:55.724Z,946.57
2016-03-29T09:30:56.555Z,946.52
2016-03-29T09:31:55.886Z,946.61
2016-03-29T09:32:55.967Z,946.56
2016-03-29T09:33:55.924Z,946.65
2016-03-29T09:34:56.848Z,946.7
2016-03-29T09:35:55.663Z,946.67
2016-03-29T09:36:55.853Z,946.64
2016-03-29T09:37:55.637Z,946.59
2016-03-29T09:38:55.640Z,946.6
2016-03-29T09:39:55.627Z,946.61
2016-03-29T09:40:55.832Z,946.65
2016-03-29T09:41:55.570Z,946.56
2016-03-29T09:42:56.837Z,946.63
2016-03-29T09:43:55.809Z,946.78
2016-03-29T09:44:55.593Z,946.59
2016-03-29T09:45:55.757Z,946.71
2016-03-29T09:46:56.432Z,946.67
2016-03-29T09:47:55.825Z,946.64
2016-03-29T09:48:55.781Z,946.7
2016-03-29T09:49:55.533Z,946.67
2016-03-29T09:50:55.739Z,946.75
2016-03-29T09:51:55.851Z,946.76
2016-03-29T09:52:55.510Z,946.79
2016-03-29T09:53:55.498Z,946.73
2016-03-29T09:54:55.500Z,946.71
2016-03-29T09:55:55.737Z,946.82
2016-03-29T09:56:56.944Z,946.8
2016-03-29T09:57:55.446Z,946.79
2016-03-29T09:58:56.480Z,946.88
2016-03-29T09:59:56.638Z,946.75
2016-03-29T10:00:56.329Z,946.78
2016-03-29T10:01:55.440Z,946.81
2016-03-29T10:02:56.818Z,946.86
2016-03-29T10:03:55.399Z,946.81
2016-03-29T10:04:55.620Z,946.93
2016-03-29T10:05:55.671Z,946.72
2016-03-29T10:06:56.516Z,946.89
2016-03-29T10:07:56.769Z,946.76
2016-03-29T10:08:55.585Z,946.79
2016-03-29T10:09:56.384Z,946.78
2016-03-29T10:10:56.168Z,946.82
2016-03-29T10:11:56.264Z,946.91
2016-03-29T10:12:55.346Z,946.84
2016-03-29T10:13:56.223Z,946.81
2016-03-29T10:14:55.304Z,946.73
2016-03-29T10:15:55.588Z,946.73
2016-03-29T10:16:56.153Z,946.76
2016-03-29T10:17:55.312Z,946.84
2016-03-29T10:18:56.206Z,946.84
2016-03-29T10:19:55.473Z,946.81
2016-03-29T10:20:56.101Z,946.79
2016-03-29T10:21:56.306Z,946.75
2016-03-29T10:22:56.075Z,946.79
2016-03-29T10:23:55.484Z,946.84
2016-03-29T10:24:55.222Z,946.89
2016-03-29T10:25:55.225Z,946.76
2016-03-29T10:26:55.461Z,946.87
2016-03-29T10:27:56.089Z,946.87
2016-03-29T10:28:56.107Z,946.8
2016-03-29T10:29:56.360Z,946.79
2016-03-29T10:30:55.377Z,946.85
2016-03-29T10:31:56.021Z,946.88
2016-03-29T10:32:56.086Z,946.83
2016-03-29T10:33:55.385Z,946.83
2016-03-29T10:34:55.404Z,946.83
2016-03-29T10:35:56.329Z,946.82
2016-03-29T10:36:55.362Z,946.85
2016-03-29T10:37:55.349Z,946.85
2016-03-29T10:38:55.352Z,946.85
2016-03-29T10:39:55.371Z,946.89
2016-03-29T10:40:55.093Z,946.83
2016-03-29T10:41:56.689Z,946.89
2016-03-29T10:42:56.254Z,946.89
2016-03-29T10:43:56.272Z,946.88
2016-03-29T10:44:55.290Z,946.95
2016-03-29T10:45:55.903Z,947.01
2016-03-29T10:46:55.248Z,947
2016-03-29T10:47:56.158Z,946.94
2016-03-29T10:48:55.270Z,947
2016-03-29T10:49:55.022Z,946.93
2016-03-29T10:50:55.259Z,946.93
2016-03-29T10:51:55.262Z,946.94
2016-03-29T10:52:54.984Z,946.92
2016-03-29T10:53:55.221Z,946.89
2016-03-29T10:54:55.256Z,946.91
2016-03-29T10:55:55.180Z,946.93
2016-03-29T10:56:54.964Z,946.89
2016-03-29T10:57:56.013Z,946.94
2016-03-29T10:58:55.142Z,946.97
2016-03-29T10:59:56.034Z,946.94
2016-03-29T11:00:57.100Z,946.98
2016-03-29T11:01:54.914Z,947.06
2016-03-29T11:02:54.902Z,947.07
2016-03-29T11:03:54.905Z,947.06
2016-03-29T11:04:55.001Z,947.07
2016-03-29T11:05:55.707Z,947.08
2016-03-29T11:06:55.084Z,947.02
2016-03-29T11:07:55.868Z,947.07
2016-03-29T11:08:55.043Z,947.19
2016-03-29T11:09:56.218Z,947.05
2016-03-29T11:10:56.173Z,947.21
2016-03-29T11:11:55.129Z,947.24
2016-03-29T11:12:55.913Z,947.21
2016-03-29T11:13:56.165Z,947.23
2016-03-29T11:14:56.262Z,947.22
2016-03-29T11:15:56.233Z,947.3
2016-03-29T11:16:54.767Z,947.2
2016-03-29T11:17:55.832Z,947.23
2016-03-29T11:18:55.570Z,947.29
2016-03-29T11:19:56.073Z,947.3
2016-03-29T11:20:55.747Z,947.29
2016-03-29T11:21:56.172Z,947.28
2016-03-29T11:22:56.034Z,947.32
2016-03-29T11:23:55.567Z,947.28
2016-03-29T11:24:55.976Z,947.26
2016-03-29T11:25:55.886Z,947.25
2016-03-29T11:26:54.951Z,947.26
2016-03-29T11:27:54.673Z,947.2
2016-03-29T11:28:55.456Z,947.24
2016-03-29T11:29:55.756Z,947.3
2016-03-29T11:30:56.289Z,947.14
2016-03-29T11:31:55.855Z,947.33
2016-03-29T11:32:55.936Z,947.27
2016-03-29T11:33:55.954Z,947.34
2016-03-29T11:34:55.488Z,947.3
2016-03-29T11:35:54.630Z,947.31
2016-03-29T11:37:12.916Z,947.34
2016-03-29T11:38:59.889Z,947.33
2016-03-29T11:40:45.642Z,947.27
2016-03-29T11:42:33.522Z,947.28
2016-03-29T11:44:20.496Z,947.28
2016-03-29T11:46:09.267Z,947.43
2016-03-29T11:47:58.600Z,947.48
2016-03-29T11:49:54.497Z,947.36
2016-03-29T11:51:57.845Z,947.35
2016-03-29T11:54:02.695Z,947.35
2016-03-29T11:56:18.935Z,947.36
2016-03-29T11:58:50.224Z,947.26
2016-03-29T12:01:27.558Z,947.3
2016-03-29T12:03:56.644Z,947.26
2016-03-29T12:06:36.774Z,947.34
2016-03-29T12:07:06.055Z,947.23
2016-03-29T12:08:06.261Z,947.34
2016-03-29T12:09:06.060Z,947.35
2016-03-29T12:10:06.298Z,947.22
2016-03-29T12:11:06.285Z,947.32
2016-03-29T12:12:06.053Z,947.36
2016-03-29T12:13:06.993Z,947.26
2016-03-29T12:14:06.198Z,947.31
2016-03-29T12:15:06.279Z,947.42
2016-03-29T12:16:06.268Z,947.19
2016-03-29T12:17:06.223Z,947.37
2016-03-29T12:18:06.959Z,947.38
2016-03-29T12:19:06.181Z,947.39
2016-03-29T12:20:06.183Z,947.37
2016-03-29T12:21:06.264Z,947.46
2016-03-29T12:22:06.173Z,947.45
2016-03-29T12:23:06.208Z,947.38
2016-03-29T12:24:07.023Z,947.36
2016-03-29T12:25:08.776Z,947.43
2016-03-29T12:26:08.575Z,947.46
2016-03-29T12:27:08.422Z,947.54
2016-03-29T12:28:08.534Z,947.53
2016-03-29T12:29:08.083Z,947.49
2016-03-29T12:30:08.789Z,947.5
2016-03-29T12:31:08.761Z,947.48
2016-03-29T12:32:08.279Z,947.55
2016-03-29T12:33:08.469Z,947.53
2016-03-29T12:34:09.019Z,947.57
2016-03-29T12:35:08.896Z,947.62
2016-03-29T12:36:08.696Z,947.63
2016-03-29T12:37:08.354Z,947.76
2016-03-29T12:38:08.388Z,947.58
2016-03-29T12:39:08.673Z,947.56
2016-03-29T12:40:08.675Z,947.67
2016-03-29T12:41:08.365Z,947.68
2016-03-29T12:42:08.712Z,947.61
2016-03-29T12:43:08.371Z,947.64
2016-03-29T12:44:08.765Z,947.62
2016-03-29T12:45:08.752Z,947.69
2016-03-29T12:46:08.379Z,947.66
2016-03-29T12:47:08.476Z,947.66
2016-03-29T12:48:08.463Z,947.81
2016-03-29T12:49:08.325Z,947.59
2016-03-29T12:50:08.421Z,947.61
2016-03-29T12:51:08.487Z,947.64
2016-03-29T12:52:08.317Z,947.6
2016-03-29T12:53:08.632Z,947.8
2016-03-29T12:54:08.259Z,947.6
2016-03-29T12:55:08.309Z,947.54
2016-03-29T12:56:08.406Z,947.54
2016-03-29T12:57:08.408Z,947.59
2016-03-29T12:58:08.474Z,947.56
2016-03-29T12:59:08.320Z,947.59
2016-03-29T13:00:08.213Z,947.6
2016-03-29T13:01:08.513Z,947.58
2016-03-29T13:02:08.218Z,947.56
2016-03-29T13:03:08.158Z,947.67
2016-03-29T13:04:51.649Z,947.67
2016-03-29T13:06:28.948Z,947.64